Time;durP1;ratioP1;P1;durP2;ratioP2;P2;SDS_P1;SDS_P2;PMS_P1;PMS_P2;Temp;Humidity;BMP_temperature;BMP_pressure;BME280_temperature;BME280_humidity;BME280_pressure;Samples;Min_cycle;Max_cycle;Signal;HPM_P1;HPM_P2
2023/04/21 00:01:07;;;;;;;4.65;3.60;;;;;;;;;;10292307;28;20068;-66
2023/04/21 00:06:06;;;;;;;9.88;4.07;;;;;;;;;;10292735;28;20083;-65
2023/04/21 00:11:05;;;;;;;8.25;4.22;;;;;;;;;;10293173;28;20080;-66
2023/04/21 00:16:04;;;;;;;10.40;4.05;;;;;;;;;;10287146;28;20072;-66
2023/04/21 00:21:02;;;;;;;5.75;4.20;;;;;;;;;;10288953;28;20072;-67
2023/04/21 00:26:01;;;;;;;4.63;4.22;;;;;;;;;;10287801;28;20075;-66
2023/04/21 00:31:01;;;;;;;6.78;4.10;;;;;;;;;;10286935;28;20503;-66
2023/04/21 00:35:59;;;;;;;6.85;4.07;;;;;;;;;;10288990;28;20080;-66
2023/04/21 00:40:57;;;;;;;4.15;3.75;;;;;;;;;;10289867;28;20151;-66
2023/04/21 00:45:56;;;;;;;6.20;4.20;;;;;;;;;;10288059;28;20069;-66
2023/04/21 00:50:55;;;;;;;4.35;3.50;;;;;;;;;;10294550;28;20064;-66
2023/04/21 00:55:53;;;;;;;6.78;4.10;;;;;;;;;;10286127;28;20064;-66
2023/04/21 01:00:52;;;;;;;4.30;3.88;;;;;;;;;;10291569;28;20064;-66
2023/04/21 01:05:50;;;;;;;3.78;3.47;;;;;;;;;;10290053;28;20076;-66
2023/04/21 01:10:49;;;;;;;4.85;3.63;;;;;;;;;;10300998;28;20525;-66
2023/04/21 01:15:48;;;;;;;4.03;3.70;;;;;;;;;;10297193;28;20088;-66
2023/04/21 01:20:48;;;;;;;5.90;4.05;;;;;;;;;;10290976;28;20072;-67
2023/04/21 01:25:48;;;;;;;4.93;4.53;;;;;;;;;;10284776;28;20087;-66
2023/04/21 01:30:46;;;;;;;4.57;3.72;;;;;;;;;;10288346;28;20072;-66
2023/04/21 01:35:44;;;;;;;6.38;4.45;;;;;;;;;;10287978;28;20071;-67
2023/04/21 01:40:45;;;;;;;7.57;4.60;;;;;;;;;;10285260;28;20068;-66
2023/04/21 01:45:44;;;;;;;6.18;4.57;;;;;;;;;;10271791;28;20065;-67
2023/04/21 01:50:43;;;;;;;8.63;5.07;;;;;;;;;;10287040;28;20457;-66
2023/04/21 01:55:41;;;;;;;6.10;5.55;;;;;;;;;;10272100;28;20076;-66
2023/04/21 02:00:40;;;;;;;6.03;5.13;;;;;;;;;;10292073;28;20055;-66
2023/04/21 02:05:39;;;;;;;9.57;5.85;;;;;;;;;;10285621;28;20974;-66
2023/04/21 02:10:38;;;;;;;8.68;5.80;;;;;;;;;;10284644;28;20548;-66
2023/04/21 02:15:37;;;;;;;6.90;4.97;;;;;;;;;;10289851;28;20060;-67
2023/04/21 02:20:37;;;;;;;5.55;5.05;;;;;;;;;;10274074;28;20079;-66
2023/04/21 02:25:38;;;;;;;5.57;4.50;;;;;;;;;;10283393;28;20047;-66
2023/04/21 02:30:36;;;;;;;5.20;4.47;;;;;;;;;;10289097;28;20597;-67
2023/04/21 02:35:34;;;;;;;5.10;4.53;;;;;;;;;;10287030;28;20060;-67
2023/04/21 02:40:32;;;;;;;8.95;5.53;;;;;;;;;;10262736;28;20061;-67
2023/04/21 02:45:32;;;;;;;5.30;4.80;;;;;;;;;;10289303;28;20094;-67
2023/04/21 02:50:30;;;;;;;6.80;6.15;;;;;;;;;;10287859;28;20518;-67
2023/04/21 02:55:28;;;;;;;7.10;5.75;;;;;;;;;;10282626;28;20421;-67
2023/04/21 03:00:26;;;;;;;9.60;5.82;;;;;;;;;;10295838;28;20486;-67
2023/04/21 03:05:26;;;;;;;7.20;6.47;;;;;;;;;;10292121;28;20061;-66
2023/04/21 03:10:24;;;;;;;7.63;6.45;;;;;;;;;;10292466;28;20582;-67
2023/04/21 03:15:25;;;;;;;8.07;6.32;;;;;;;;;;10295313;28;20081;-67
2023/04/21 03:20:24;;;;;;;10.60;6.00;;;;;;;;;;10281585;28;20072;-67
2023/04/21 03:25:26;;;;;;;8.07;6.55;;;;;;;;;;10280676;28;20090;-66
2023/04/21 03:30:25;;;;;;;6.57;5.97;;;;;;;;;;10293140;28;20075;-67
2023/04/21 03:35:23;;;;;;;6.63;5.85;;;;;;;;;;10298504;28;20068;-67
2023/04/21 03:40:22;;;;;;;8.50;7.47;;;;;;;;;;10304176;28;20392;-66
2023/04/21 03:45:22;;;;;;;6.88;5.28;;;;;;;;;;10286207;28;20073;-66
2023/04/21 03:50:21;;;;;;;6.80;6.15;;;;;;;;;;10285936;28;20081;-68
2023/04/21 03:55:19;;;;;;;6.10;5.50;;;;;;;;;;10293369;28;20064;-67
2023/04/21 04:00:17;;;;;;;9.23;5.45;;;;;;;;;;10287436;28;20076;-68
2023/04/21 04:05:17;;;;;;;10.30;6.75;;;;;;;;;;10285312;28;20076;-67
2023/04/21 04:10:15;;;;;;;15.23;6.28;;;;;;;;;;10288597;28;20072;-66
2023/04/21 04:15:13;;;;;;;9.15;6.15;;;;;;;;;;10287781;28;20496;-67
2023/04/21 04:20:11;;;;;;;6.85;5.75;;;;;;;;;;10292718;28;20457;-65
2023/04/21 04:25:13;;;;;;;11.93;5.60;;;;;;;;;;10282861;28;20091;-66
2023/04/21 04:30:12;;;;;;;6.35;5.45;;;;;;;;;;10274828;28;20478;-66
2023/04/21 04:35:11;;;;;;;6.03;5.53;;;;;;;;;;10284560;28;20529;-66
2023/04/21 04:40:12;;;;;;;6.97;6.00;;;;;;;;;;10282241;28;20479;-66
2023/04/21 04:45:10;;;;;;;13.07;11.63;;;;;;;;;;10280570;28;20080;-66
2023/04/21 04:50:08;;;;;;;16.73;13.57;;;;;;;;;;10287375;28;20531;-66
2023/04/21 04:55:08;;;;;;;15.02;13.63;;;;;;;;;;10289117;28;20104;-67
2023/04/21 05:00:10;;;;;;;11.23;10.02;;;;;;;;;;10277492;28;20075;-68
2023/04/21 05:05:08;;;;;;;8.27;7.55;;;;;;;;;;10276108;28;20518;-68
2023/04/21 05:10:07;;;;;;;7.68;6.68;;;;;;;;;;10276628;28;20074;-69
2023/04/21 05:15:08;;;;;;;8.07;7.28;;;;;;;;;;10263468;28;20061;-68
2023/04/21 05:20:07;;;;;;;8.35;6.55;;;;;;;;;;10278177;28;20100;-68
2023/04/21 05:25:06;;;;;;;6.90;6.20;;;;;;;;;;10279094;28;20079;-68
2023/04/21 05:30:04;;;;;;;7.20;6.28;;;;;;;;;;10282369;28;20084;-69
2023/04/21 05:35:05;;;;;;;6.38;5.88;;;;;;;;;;10286519;28;20072;-68
2023/04/21 05:40:03;;;;;;;7.30;6.60;;;;;;;;;;10282328;28;20077;-68
2023/04/21 05:45:02;;;;;;;7.18;6.57;;;;;;;;;;10282611;28;20088;-69
2023/04/21 05:50:01;;;;;;;8.02;7.07;;;;;;;;;;10282551;28;20079;-68
2023/04/21 05:55:01;;;;;;;7.38;6.53;;;;;;;;;;10285456;28;20120;-68
2023/04/21 05:59:59;;;;;;;9.52;5.97;;;;;;;;;;10282687;28;20083;-68
2023/04/21 06:04:57;;;;;;;8.77;5.85;;;;;;;;;;10279208;28;20103;-68
2023/04/21 06:09:56;;;;;;;7.97;7.18;;;;;;;;;;10282342;28;20497;-69
2023/04/21 06:14:56;;;;;;;8.20;6.93;;;;;;;;;;10287089;28;20490;-70
2023/04/21 06:19:54;;;;;;;8.43;7.63;;;;;;;;;;10291013;28;20274;-69
2023/04/21 06:24:53;;;;;;;8.82;7.68;;;;;;;;;;10288826;28;20521;-69
2023/04/21 06:29:54;;;;;;;10.25;7.88;;;;;;;;;;10287596;28;20465;-69
2023/04/21 06:34:56;;;;;;;10.27;9.13;;;;;;;;;;10295641;28;20121;-69
2023/04/21 06:39:54;;;;;;;17.20;15.35;;;;;;;;;;10299354;28;20111;-69
2023/04/21 06:44:52;;;;;;;18.73;16.80;;;;;;;;;;10297159;28;20088;-69
2023/04/21 06:49:51;;;;;;;19.55;12.65;;;;;;;;;;10297725;28;20528;-67
2023/04/21 06:54:50;;;;;;;14.27;10.95;;;;;;;;;;10295874;28;20091;-68
2023/04/21 06:59:48;;;;;;;14.73;11.02;;;;;;;;;;10297268;28;20079;-68
2023/04/21 07:04:49;;;;;;;13.88;11.20;;;;;;;;;;10297385;28;20092;-69
2023/04/21 07:09:47;;;;;;;9.60;8.73;;;;;;;;;;10295064;28;20545;-69
2023/04/21 07:14:47;;;;;;;12.77;6.50;;;;;;;;;;10294543;28;20080;-69
2023/04/21 07:19:45;;;;;;;6.28;5.68;;;;;;;;;;10295747;28;20517;-69
2023/04/21 07:24:48;;;;;;;15.15;7.07;;;;;;;;;;10296271;28;20083;-69
2023/04/21 07:29:53;;;;;;;6.88;6.03;;;;;;;;;;10292833;28;20071;-69
2023/04/21 07:34:51;;;;;;;8.80;5.55;;;;;;;;;;10295189;28;20064;-69
2023/04/21 07:39:49;;;;;;;8.55;5.50;;;;;;;;;;10294818;28;20076;-67
2023/04/21 07:44:48;;;;;;;12.27;6.18;;;;;;;;;;10292835;28;20099;-67
2023/04/21 07:49:49;;;;;;;9.70;5.07;;;;;;;;;;10293940;28;20084;-68
2023/04/21 07:54:51;;;;;;;10.63;5.13;;;;;;;;;;10304457;28;20052;-68
2023/04/21 07:59:49;;;;;;;11.30;6.57;;;;;;;;;;10298181;28;20051;-69
2023/04/21 08:04:47;;;;;;;12.45;5.07;;;;;;;;;;10292774;28;20377;-69
2023/04/21 08:09:47;;;;;;;8.60;5.00;;;;;;;;;;10295129;28;20073;-69
2023/04/21 08:14:45;;;;;;;13.27;5.30;;;;;;;;;;10294907;28;20088;-69
2023/04/21 08:19:43;;;;;;;8.35;3.92;;;;;;;;;;10294079;28;20075;-69
2023/04/21 08:24:41;;;;;;;10.38;5.55;;;;;;;;;;10294821;28;20068;-69
2023/04/21 08:29:41;;;;;;;7.55;4.18;;;;;;;;;;10294755;28;20075;-69
2023/04/21 08:34:39;;;;;;;7.72;3.42;;;;;;;;;;10293344;28;20064;-68
2023/04/21 08:39:37;;;;;;;6.53;2.80;;;;;;;;;;10293304;28;20072;-68
2023/04/21 08:44:35;;;;;;;9.80;3.50;;;;;;;;;;10291928;28;20080;-69
2023/04/21 08:49:36;;;;;;;9.30;4.10;;;;;;;;;;10291203;28;20083;-69
2023/04/21 08:54:36;;;;;;;5.55;2.78;;;;;;;;;;10291412;28;20071;-69
2023/04/21 08:59:34;;;;;;;6.60;3.00;;;;;;;;;;10291530;28;20510;-69
2023/04/21 09:04:32;;;;;;;12.70;6.85;;;;;;;;;;10292567;28;20080;-69
2023/04/21 09:09:32;;;;;;;4.38;3.03;;;;;;;;;;10290002;28;20091;-69
2023/04/21 09:14:33;;;;;;;12.88;2.80;;;;;;;;;;10291833;28;20068;-69
2023/04/21 09:19:34;;;;;;;3.90;2.60;;;;;;;;;;10298930;28;20076;-69
2023/04/21 09:24:33;;;;;;;7.30;3.63;;;;;;;;;;10288682;28;20167;-69
2023/04/21 09:29:32;;;;;;;4.82;2.38;;;;;;;;;;10292443;28;20083;-69
2023/04/21 09:34:32;;;;;;;6.22;3.15;;;;;;;;;;10292986;28;20057;-69
2023/04/21 09:39:30;;;;;;;8.05;3.97;;;;;;;;;;10291232;28;20068;-69
2023/04/21 09:44:44;;;;;;;10.43;3.75;;;;;;;;;;10288514;28;20095;-69
2023/04/21 09:49:53;;;;;;;15.65;4.00;;;;;;;;;;10287838;28;20147;-68
2023/04/21 09:54:52;;;;;;;11.70;3.25;;;;;;;;;;10291722;28;20068;-69
2023/04/21 09:59:55;;;;;;;7.75;2.88;;;;;;;;;;10291012;28;20098;-69
2023/04/21 10:04:54;;;;;;;10.43;4.20;;;;;;;;;;10287861;28;20077;-69
2023/04/21 10:09:54;;;;;;;8.32;3.70;;;;;;;;;;10288057;28;20529;-68
2023/04/21 10:14:54;;;;;;;13.05;3.60;;;;;;;;;;10289413;28;20041;-68
2023/04/21 10:19:53;;;;;;;7.45;3.10;;;;;;;;;;10291167;28;20467;-68
2023/04/21 10:24:54;;;;;;;10.80;4.15;;;;;;;;;;10289123;28;20067;-68
2023/04/21 10:29:54;;;;;;;7.50;3.42;;;;;;;;;;10287998;28;20466;-68
2023/04/21 10:34:56;;;;;;;4.15;2.58;;;;;;;;;;10289284;28;20065;-68
2023/04/21 10:39:55;;;;;;;8.10;3.13;;;;;;;;;;10289925;28;20079;-68
2023/04/21 10:45:11;;;;;;;10.98;3.80;;;;;;;;;;10289231;28;20072;-68
2023/04/21 10:50:14;;;;;;;9.38;4.70;;;;;;;;;;10287113;28;20085;-67
2023/04/21 10:55:14;;;;;;;11.30;4.45;;;;;;;;;;10291704;28;20085;-68
2023/04/21 11:00:18;;;;;;;6.50;4.40;;;;;;;;;;10289427;28;20067;-68
2023/04/21 11:05:16;;;;;;;8.23;3.60;;;;;;;;;;10288865;28;20076;-68
2023/04/21 11:10:16;;;;;;;9.82;3.33;;;;;;;;;;10290117;28;20476;-68
2023/04/21 11:15:15;;;;;;;7.90;3.35;;;;;;;;;;10291108;28;20068;-68
2023/04/21 11:20:14;;;;;;;16.17;4.45;;;;;;;;;;10294410;28;20103;-68
2023/04/21 11:25:16;;;;;;;13.10;4.45;;;;;;;;;;10296758;28;20075;-68
2023/04/21 11:30:15;;;;;;;12.45;4.57;;;;;;;;;;10297464;28;20079;-68
2023/04/21 11:35:15;;;;;;;10.82;4.28;;;;;;;;;;10296184;28;20498;-68
2023/04/21 11:40:13;;;;;;;14.07;4.65;;;;;;;;;;10295415;28;20539;-68
2023/04/21 11:45:16;;;;;;;10.52;3.85;;;;;;;;;;10297059;28;20076;-68
2023/04/21 11:50:32;;;;;;;10.93;4.43;;;;;;;;;;10293347;28;20076;-68
2023/04/21 11:55:30;;;;;;;9.73;3.78;;;;;;;;;;10295165;28;20064;-68
2023/04/21 12:00:29;;;;;;;11.07;4.40;;;;;;;;;;10296019;28;20056;-68
2023/04/21 12:05:35;;;;;;;10.07;4.65;;;;;;;;;;10296044;28;20513;-68
2023/04/21 12:10:34;;;;;;;17.33;5.80;;;;;;;;;;10296353;28;20076;-68
2023/04/21 12:15:32;;;;;;;10.77;4.22;;;;;;;;;;10292829;28;20107;-68
2023/04/21 12:20:30;;;;;;;10.90;4.05;;;;;;;;;;10292910;28;20074;-68
2023/04/21 12:25:30;;;;;;;13.65;4.50;;;;;;;;;;10295108;28;20080;-68
2023/04/21 12:30:28;;;;;;;12.32;4.00;;;;;;;;;;10294089;28;20079;-67
2023/04/21 12:35:27;;;;;;;8.18;3.30;;;;;;;;;;10306440;28;20045;-67
2023/04/21 12:40:25;;;;;;;14.50;4.53;;;;;;;;;;10293818;28;20083;-67
2023/04/21 12:45:25;;;;;;;12.00;5.05;;;;;;;;;;10294272;28;20076;-67
2023/04/21 12:50:23;;;;;;;15.95;3.72;;;;;;;;;;10293685;28;20077;-67
2023/04/21 12:55:21;;;;;;;6.88;3.67;;;;;;;;;;10290945;28;20072;-68
2023/04/21 13:00:20;;;;;;;8.75;3.10;;;;;;;;;;10265905;28;20467;-67
2023/04/21 13:05:19;;;;;;;8.55;4.45;;;;;;;;;;10282819;28;20080;-68
2023/04/21 13:10:17;;;;;;;14.43;5.57;;;;;;;;;;10288662;28;20499;-68
2023/04/21 13:15:17;;;;;;;6.57;3.00;;;;;;;;;;10283491;28;20072;-68
2023/04/21 13:20:17;;;;;;;7.10;3.50;;;;;;;;;;10286716;28;20356;-68
2023/04/21 13:25:17;;;;;;;11.57;4.15;;;;;;;;;;10285619;28;20075;-68
2023/04/21 13:30:16;;;;;;;9.05;3.85;;;;;;;;;;10288731;28;20076;-68
2023/04/21 13:35:14;;;;;;;7.47;3.08;;;;;;;;;;10291988;28;20079;-68
2023/04/21 13:40:12;;;;;;;9.30;3.42;;;;;;;;;;10290466;28;20064;-68
2023/04/21 13:45:12;;;;;;;9.40;3.33;;;;;;;;;;10290328;28;20515;-68
2023/04/21 13:50:10;;;;;;;9.70;3.90;;;;;;;;;;10291591;28;20084;-68
2023/04/21 13:55:10;;;;;;;13.10;5.82;;;;;;;;;;10291576;28;20103;-68
2023/04/21 14:00:09;;;;;;;12.18;4.38;;;;;;;;;;10289852;28;20076;-68
2023/04/21 14:05:09;;;;;;;14.68;4.45;;;;;;;;;;10289233;28;20069;-68
2023/04/21 14:10:08;;;;;;;10.07;5.78;;;;;;;;;;10289215;28;20516;-69
2023/04/21 14:15:07;;;;;;;8.75;3.78;;;;;;;;;;10289806;28;20309;-68
2023/04/21 14:20:08;;;;;;;7.35;3.50;;;;;;;;;;10288367;28;20066;-69
2023/04/21 14:25:08;;;;;;;10.05;4.88;;;;;;;;;;10288486;28;20088;-68
2023/04/21 14:30:06;;;;;;;11.57;3.58;;;;;;;;;;10287597;28;20076;-68
2023/04/21 14:35:05;;;;;;;9.30;3.30;;;;;;;;;;10286454;28;20079;-68
2023/04/21 14:40:06;;;;;;;13.15;2.95;;;;;;;;;;10292106;28;20075;-68
2023/04/21 14:45:06;;;;;;;9.95;3.67;;;;;;;;;;10289310;28;20088;-69
2023/04/21 14:50:05;;;;;;;6.68;4.72;;;;;;;;;;10290772;28;20072;-68
2023/04/21 14:55:03;;;;;;;11.07;4.30;;;;;;;;;;10295801;28;20107;-68
2023/04/21 15:00:02;;;;;;;7.55;3.60;;;;;;;;;;10296742;28;20079;-68
2023/04/21 15:05:02;;;;;;;11.20;5.32;;;;;;;;;;10294280;28;20522;-68
2023/04/21 15:10:00;;;;;;;6.80;3.92;;;;;;;;;;10294879;28;20095;-68
2023/04/21 15:14:58;;;;;;;12.02;3.40;;;;;;;;;;10296598;28;20072;-67
2023/04/21 15:19:57;;;;;;;9.07;3.78;;;;;;;;;;10297348;28;20075;-68
2023/04/21 15:24:56;;;;;;;8.80;3.60;;;;;;;;;;10296762;28;20056;-69
2023/04/21 15:29:55;;;;;;;7.28;4.10;;;;;;;;;;10297277;28;20072;-69
2023/04/21 15:34:53;;;;;;;9.02;3.60;;;;;;;;;;10297309;28;20090;-69
2023/04/21 15:39:51;;;;;;;20.70;4.25;;;;;;;;;;10295838;28;20076;-69
2023/04/21 15:44:52;;;;;;;13.90;5.28;;;;;;;;;;10296886;28;20122;-69
2023/04/21 15:49:53;;;;;;;8.00;3.17;;;;;;;;;;10295659;28;20053;-69
2023/04/21 15:54:51;;;;;;;12.30;6.30;;;;;;;;;;10296645;28;20068;-69
2023/04/21 15:59:51;;;;;;;10.23;6.00;;;;;;;;;;10295226;28;20075;-69
2023/04/21 16:04:49;;;;;;;18.38;7.40;;;;;;;;;;10294851;28;20071;-69
2023/04/21 16:09:48;;;;;;;10.35;4.57;;;;;;;;;;10294343;28;20095;-69
2023/04/21 16:14:46;;;;;;;16.90;5.68;;;;;;;;;;10291837;28;20069;-69
2023/04/21 16:19:57;;;;;;;15.90;6.07;;;;;;;;;;10294253;28;20510;-69
2023/04/21 16:24:57;;;;;;;23.40;9.98;;;;;;;;;;10295619;28;20075;-69
2023/04/21 16:29:55;;;;;;;12.15;5.63;;;;;;;;;;10294821;28;20069;-69
2023/04/21 16:34:54;;;;;;;27.65;17.30;;;;;;;;;;10295074;28;20521;-70
2023/04/21 16:39:53;;;;;;;116.28;78.65;;;;;;;;;;10294483;28;20072;-69
2023/04/21 16:44:57;;;;;;;43.55;38.03;;;;;;;;;;10294272;28;20537;-69
2023/04/21 16:49:55;;;;;;;19.97;17.40;;;;;;;;;;10293704;28;20084;-69
2023/04/21 16:54:55;;;;;;;35.65;23.63;;;;;;;;;;10293571;28;20099;-67
2023/04/21 16:59:53;;;;;;;33.15;22.10;;;;;;;;;;10293872;28;20072;-68
2023/04/21 17:04:51;;;;;;;10.32;5.50;;;;;;;;;;10295482;28;20047;-68
2023/04/21 17:09:50;;;;;;;14.10;8.13;;;;;;;;;;10307584;28;20061;-68
2023/04/21 17:14:50;;;;;;;17.73;9.10;;;;;;;;;;10291537;28;20068;-69
2023/04/21 17:19:48;;;;;;;32.60;21.52;;;;;;;;;;10292115;28;20477;-68
2023/04/21 17:24:46;;;;;;;32.97;21.63;;;;;;;;;;10289890;28;20068;-69
2023/04/21 17:29:47;;;;;;;12.52;7.70;;;;;;;;;;10290161;28;20084;-68
2023/04/21 17:34:46;;;;;;;10.75;4.85;;;;;;;;;;10289614;28;20075;-69
2023/04/21 17:39:45;;;;;;;11.23;6.28;;;;;;;;;;10289881;28;20439;-69
2023/04/21 17:44:43;;;;;;;18.13;9.77;;;;;;;;;;10291735;28;20083;-69
2023/04/21 17:49:41;;;;;;;17.83;11.18;;;;;;;;;;10292768;28;20072;-69
2023/04/21 17:54:40;;;;;;;11.02;6.00;;;;;;;;;;10290987;28;20087;-69
2023/04/21 17:59:39;;;;;;;9.93;8.38;;;;;;;;;;10290372;28;20076;-69
2023/04/21 18:04:37;;;;;;;12.13;5.50;;;;;;;;;;10291235;28;20067;-69
2023/04/21 18:09:36;;;;;;;11.55;9.38;;;;;;;;;;10291736;28;20080;-69
2023/04/21 18:14:36;;;;;;;11.32;7.50;;;;;;;;;;10291536;28;20087;-69
2023/04/21 18:19:34;;;;;;;11.20;4.80;;;;;;;;;;10290535;28;20544;-68
2023/04/21 18:24:32;;;;;;;9.20;5.13;;;;;;;;;;10289625;28;20071;-68
2023/04/21 18:29:31;;;;;;;13.90;7.93;;;;;;;;;;10286327;28;20065;-69
2023/04/21 18:34:30;;;;;;;10.43;5.97;;;;;;;;;;10287730;28;20072;-68
2023/04/21 18:39:28;;;;;;;10.32;5.38;;;;;;;;;;10291344;28;20458;-69
2023/04/21 18:44:27;;;;;;;9.60;6.03;;;;;;;;;;10274596;28;20117;-68
2023/04/21 18:49:26;;;;;;;10.43;6.60;;;;;;;;;;10291071;28;20574;-68
2023/04/21 18:54:26;;;;;;;15.10;10.45;;;;;;;;;;10291106;28;20091;-68
2023/04/21 18:59:24;;;;;;;22.80;14.88;;;;;;;;;;10290737;28;20083;-69
2023/04/21 19:04:23;;;;;;;12.43;9.57;;;;;;;;;;10291550;28;20076;-69
2023/04/21 19:09:21;;;;;;;19.00;11.82;;;;;;;;;;10289821;28;20072;-68
2023/04/21 19:14:21;;;;;;;10.35;6.95;;;;;;;;;;10290226;28;20076;-68
2023/04/21 19:19:20;;;;;;;10.82;5.10;;;;;;;;;;10288333;28;20099;-68
2023/04/21 19:24:18;;;;;;;7.38;4.18;;;;;;;;;;10289188;28;20086;-69
2023/04/21 19:29:16;;;;;;;6.47;3.97;;;;;;;;;;10287073;28;20458;-68
2023/04/21 19:34:16;;;;;;;7.05;4.43;;;;;;;;;;10288078;28;20077;-68
2023/04/21 19:39:14;;;;;;;8.75;4.40;;;;;;;;;;10289168;28;20065;-68
2023/04/21 19:44:12;;;;;;;11.93;4.78;;;;;;;;;;10296728;28;20076;-68
2023/04/21 19:49:11;;;;;;;9.07;6.68;;;;;;;;;;10297559;28;20083;-68
2023/04/21 19:54:11;;;;;;;18.95;11.75;;;;;;;;;;10295344;28;20099;-69
2023/04/21 19:59:09;;;;;;;17.90;9.15;;;;;;;;;;10297024;28;20071;-69
2023/04/21 20:04:07;;;;;;;16.88;10.75;;;;;;;;;;10297280;28;20081;-69
2023/04/21 20:09:10;;;;;;;15.45;10.23;;;;;;;;;;10295889;28;20072;-69
2023/04/21 20:14:09;;;;;;;10.15;6.80;;;;;;;;;;10295127;28;20083;-69
2023/04/21 20:19:09;;;;;;;7.50;5.70;;;;;;;;;;10297196;28;20059;-68
2023/04/21 20:24:09;;;;;;;7.53;4.47;;;;;;;;;;10278172;28;20072;-68
2023/04/21 20:29:08;;;;;;;10.20;3.70;;;;;;;;;;10283048;28;20080;-68
2023/04/21 20:34:07;;;;;;;6.45;4.07;;;;;;;;;;10284880;28;20552;-68
2023/04/21 20:39:05;;;;;;;10.75;4.82;;;;;;;;;;10292580;28;20076;-68
2023/04/21 20:44:05;;;;;;;9.05;5.25;;;;;;;;;;10293228;28;20104;-68
2023/04/21 20:49:05;;;;;;;11.77;4.90;;;;;;;;;;10289712;28;20069;-68
2023/04/21 20:54:03;;;;;;;8.35;4.57;;;;;;;;;;10290474;28;20075;-68
2023/04/21 20:59:01;;;;;;;11.38;5.85;;;;;;;;;;10289505;28;20068;-68
2023/04/21 21:04:00;;;;;;;10.82;4.38;;;;;;;;;;10291519;28;20071;-68
2023/04/21 21:09:00;;;;;;;11.73;4.40;;;;;;;;;;10288332;28;20074;-69
2023/04/21 21:14:04;;;;;;;9.02;4.43;;;;;;;;;;10290503;28;20086;-69
2023/04/21 21:19:02;;;;;;;14.88;4.78;;;;;;;;;;10293049;28;20516;-68
2023/04/21 21:24:02;;;;;;;10.82;4.70;;;;;;;;;;10277355;28;20072;-68
2023/04/21 21:29:00;;;;;;;9.00;4.57;;;;;;;;;;10291141;28;20506;-69
2023/04/21 21:34:00;;;;;;;11.27;5.03;;;;;;;;;;10295153;28;20064;-68
2023/04/21 21:38:58;;;;;;;11.07;6.70;;;;;;;;;;10304587;28;20082;-68
2023/04/21 21:43:57;;;;;;;10.65;6.03;;;;;;;;;;10290898;28;20505;-69
2023/04/21 21:48:55;;;;;;;9.18;5.35;;;;;;;;;;10293377;28;20083;-69
2023/04/21 21:53:54;;;;;;;8.15;5.40;;;;;;;;;;10289881;28;20073;-69
2023/04/21 21:58:52;;;;;;;11.27;4.75;;;;;;;;;;10291270;28;20110;-69
2023/04/21 22:03:52;;;;;;;6.03;4.55;;;;;;;;;;10294481;28;20069;-69
2023/04/21 22:08:51;;;;;;;9.55;5.25;;;;;;;;;;10290704;28;20076;-69
2023/04/21 22:13:49;;;;;;;5.47;4.75;;;;;;;;;;10290692;28;20076;-69
2023/04/21 22:18:48;;;;;;;12.77;4.72;;;;;;;;;;10289526;28;20628;-68
2023/04/21 22:23:47;;;;;;;7.75;5.35;;;;;;;;;;10291873;28;20069;-69
2023/04/21 22:28:48;;;;;;;8.82;5.00;;;;;;;;;;10291983;28;20061;-69
2023/04/21 22:33:46;;;;;;;9.15;5.65;;;;;;;;;;10286537;28;20833;-69
2023/04/21 22:38:45;;;;;;;11.50;5.43;;;;;;;;;;10285167;28;20057;-69
2023/04/21 22:43:45;;;;;;;10.25;6.47;;;;;;;;;;10284875;28;20080;-69
2023/04/21 22:48:45;;;;;;;10.88;6.55;;;;;;;;;;10286450;28;20064;-69
2023/04/21 22:53:43;;;;;;;17.95;7.57;;;;;;;;;;10267170;28;20080;-69
2023/04/21 22:58:42;;;;;;;10.35;7.38;;;;;;;;;;10288470;28;20079;-69
2023/04/21 23:03:42;;;;;;;10.35;7.18;;;;;;;;;;10290330;28;20537;-69
2023/04/21 23:08:40;;;;;;;9.70;6.40;;;;;;;;;;10290776;28;20084;-68
2023/04/21 23:13:38;;;;;;;17.17;6.95;;;;;;;;;;10290271;28;20072;-68
2023/04/21 23:18:37;;;;;;;15.52;6.70;;;;;;;;;;10298441;28;20083;-69
2023/04/21 23:23:36;;;;;;;11.68;6.55;;;;;;;;;;10297595;28;21526;-69
2023/04/21 23:28:37;;;;;;;12.27;5.97;;;;;;;;;;10293755;28;20075;-69
2023/04/21 23:33:35;;;;;;;9.25;5.53;;;;;;;;;;10295944;28;20075;-69
2023/04/21 23:38:33;;;;;;;12.70;6.38;;;;;;;;;;10296261;28;20088;-69
2023/04/21 23:43:33;;;;;;;11.02;5.85;;;;;;;;;;10300843;28;20049;-68
2023/04/21 23:48:31;;;;;;;7.57;5.70;;;;;;;;;;10297837;28;20506;-69
2023/04/21 23:53:29;;;;;;;10.80;5.65;;;;;;;;;;10299752;28;20074;-69
2023/04/21 23:58:28;;;;;;;9.10;6.43;;;;;;;;;;10299248;28;20076;-69
